createdAt,value
2019-05-22T00:00:16.772Z,92.51
2019-05-22T00:02:47.770Z,92.49
2019-05-22T00:05:18.113Z,92.88
2019-05-22T00:07:48.923Z,92.62
2019-05-22T00:10:22.435Z,92.39
2019-05-22T00:12:53.004Z,92.16
2019-05-22T00:15:23.990Z,92.38
2019-05-22T00:17:54.327Z,92.83
2019-05-22T00:20:26.026Z,92.94
2019-05-22T00:22:55.055Z,92.85
2019-05-22T00:25:29.006Z,93.22
2019-05-22T00:27:59.658Z,92.91
2019-05-22T00:30:29.101Z,92.90
2019-05-22T00:33:00.450Z,92.90
2019-05-22T00:35:30.830Z,92.81
2019-05-22T00:38:01.600Z,93.30
2019-05-22T00:40:32.201Z,93.35
2019-05-22T00:43:05.540Z,93.53
2019-05-22T00:45:31.527Z,93.30
2019-05-22T00:48:00.752Z,93.67
2019-05-22T00:50:33.868Z,93.22
2019-05-22T00:53:22.058Z,93.37
2019-05-22T00:55:53.231Z,93.00
2019-05-22T00:58:29.639Z,92.93
2019-05-22T01:01:04.212Z,93.11
2019-05-22T01:03:34.258Z,92.86
2019-05-22T01:06:04.933Z,93.22
2019-05-22T01:08:36.618Z,92.36
2019-05-22T01:11:07.646Z,92.30
2019-05-22T01:13:37.777Z,91.84
2019-05-22T01:16:08.389Z,91.83
2019-05-22T01:18:38.923Z,91.04
2019-05-22T01:21:07.877Z,91.54
2019-05-22T01:23:36.696Z,91.95
2019-05-22T01:26:09.411Z,92.26
2019-05-22T01:28:39.044Z,92.70
2019-05-22T01:31:09.335Z,92.74
2019-05-22T01:33:52.381Z,92.83
2019-05-22T01:36:26.207Z,92.94
2019-05-22T01:38:59.086Z,93.18
2019-05-22T01:41:37.236Z,93.52
2019-05-22T01:44:09.101Z,93.71
2019-05-22T01:46:42.158Z,93.49
2019-05-22T01:49:13.219Z,93.86
2019-05-22T01:51:42.543Z,93.60
2019-05-22T01:54:11.767Z,93.58
2019-05-22T01:56:42.331Z,93.76
2019-05-22T01:59:12.478Z,94.25
2019-05-22T02:01:42.234Z,93.35
2019-05-22T02:04:14.826Z,92.97
2019-05-22T02:06:43.848Z,93.48
2019-05-22T02:09:46.464Z,93.92
2019-05-22T02:12:18.050Z,93.42
2019-05-22T02:14:50.730Z,93.74
2019-05-22T02:17:22.636Z,93.90
2019-05-22T02:19:52.369Z,94.00
2019-05-22T02:22:22.126Z,93.34
2019-05-22T02:24:52.093Z,93.23
2019-05-22T02:27:21.380Z,93.22
2019-05-22T02:29:52.409Z,93.12
2019-05-22T02:32:23.006Z,93.41
2019-05-22T02:34:52.275Z,93.39
2019-05-22T02:37:22.144Z,93.56
2019-05-22T02:39:53.439Z,93.67
2019-05-22T02:42:26.010Z,93.31
2019-05-22T02:44:55.610Z,93.46
2019-05-22T02:47:25.334Z,93.53
2019-05-22T02:49:56.155Z,93.52
2019-05-22T02:52:25.649Z,93.87
2019-05-22T02:54:55.349Z,93.76
2019-05-22T02:57:26.386Z,94.27
2019-05-22T02:59:55.804Z,94.64
2019-05-22T03:02:25.424Z,94.78
2019-05-22T03:05:09.837Z,94.81
2019-05-22T03:07:40.290Z,95.12
2019-05-22T03:10:12.382Z,95.12
2019-05-22T03:12:42.019Z,94.79
2019-05-22T03:15:14.312Z,95.33
2019-05-22T03:17:43.747Z,95.35
2019-05-22T03:20:18.859Z,95.58
2019-05-22T03:23:18.554Z,95.42
2019-05-22T03:25:49.111Z,95.30
2019-05-22T03:28:18.021Z,95.85
2019-05-22T03:30:47.534Z,96.37
2019-05-22T03:33:16.655Z,96.20
2019-05-22T03:35:50.557Z,96.26
2019-05-22T03:38:20.596Z,96.61
2019-05-22T03:40:52.242Z,97.01
2019-05-22T03:43:28.161Z,97.32
2019-05-22T03:45:59.849Z,98.05
2019-05-22T03:48:32.560Z,98.36
2019-05-22T03:51:11.212Z,98.33
2019-05-22T03:53:41.356Z,98.61
2019-05-22T03:56:10.306Z,98.99
2019-05-22T03:58:39.411Z,99.17
2019-05-22T04:01:09.164Z,99.35
2019-05-22T04:03:38.630Z,99.62
2019-05-22T04:06:08.505Z,99.91
2019-05-22T04:08:38.635Z,100.00
2019-05-22T04:11:08.628Z,100.00
2019-05-22T04:13:38.765Z,100.00
2019-05-22T04:16:10.098Z,100.00
2019-05-22T04:18:40.759Z,100.00
2019-05-22T04:21:09.577Z,100.00
2019-05-22T04:23:39.420Z,100.00
2019-05-22T04:26:09.523Z,100.00
2019-05-22T04:28:48.195Z,100.00
2019-05-22T04:31:37.426Z,100.00
2019-05-22T04:34:10.582Z,100.00
2019-05-22T04:36:40.027Z,100.00
2019-05-22T04:39:13.175Z,100.00
2019-05-22T04:41:43.599Z,100.00
2019-05-22T04:44:12.666Z,100.00
2019-05-22T04:46:42.601Z,100.00
2019-05-22T04:49:12.087Z,100.00
2019-05-22T04:51:41.224Z,100.00
2019-05-22T04:54:10.349Z,100.00
2019-05-22T04:56:39.508Z,100.00
2019-05-22T04:59:09.143Z,100.00
2019-05-22T05:01:38.844Z,100.00
2019-05-22T05:04:08.584Z,100.00
2019-05-22T05:06:38.890Z,100.00
2019-05-22T05:09:11.018Z,100.00
2019-05-22T05:11:42.786Z,100.00
2019-05-22T05:14:12.408Z,100.00
2019-05-22T05:16:42.374Z,100.00
2019-05-22T05:19:11.890Z,100.00
2019-05-22T05:21:41.634Z,100.00
2019-05-22T05:24:12.469Z,100.00
2019-05-22T05:26:41.496Z,100.00
2019-05-22T05:29:29.191Z,100.00
2019-05-22T05:31:59.979Z,100.00
2019-05-22T05:34:44.842Z,100.00
2019-05-22T05:37:13.802Z,100.00
2019-05-22T05:39:48.207Z,100.00
2019-05-22T05:42:18.495Z,100.00
2019-05-22T05:45:07.802Z,100.00
2019-05-22T05:47:37.656Z,100.00
2019-05-22T05:50:12.699Z,100.00
2019-05-22T05:52:41.924Z,100.00
2019-05-22T05:55:11.884Z,100.00
2019-05-22T05:57:43.869Z,100.00
2019-05-22T06:00:22.390Z,100.00
2019-05-22T06:02:56.557Z,100.00
2019-05-22T06:05:26.386Z,100.00
2019-05-22T06:07:55.731Z,100.00
2019-05-22T06:10:30.378Z,100.00
2019-05-22T06:13:00.523Z,100.00
2019-05-22T06:15:45.820Z,100.00
2019-05-22T06:18:10.620Z,100.00
2019-05-22T06:20:39.689Z,100.00
2019-05-22T06:23:17.223Z,100.00
2019-05-22T06:25:46.646Z,100.00
2019-05-22T06:28:16.254Z,100.00
2019-05-22T06:30:46.379Z,100.00
2019-05-22T06:33:29.636Z,100.00
2019-05-22T06:35:59.242Z,100.00
2019-05-22T06:38:42.385Z,99.81
2019-05-22T06:41:12.207Z,99.84
2019-05-22T06:43:43.790Z,100.00
2019-05-22T06:46:15.059Z,100.00
2019-05-22T06:48:45.743Z,100.00
2019-05-22T06:51:19.343Z,100.00
2019-05-22T06:53:45.857Z,100.00
2019-05-22T06:56:14.928Z,100.00
2019-05-22T06:58:43.736Z,100.00
2019-05-22T07:01:12.616Z,100.00
2019-05-22T07:03:41.645Z,100.00
2019-05-22T07:06:10.419Z,99.84
2019-05-22T07:08:39.955Z,99.75
2019-05-22T07:11:09.932Z,99.88
2019-05-22T07:13:39.170Z,100.00
2019-05-22T07:16:07.898Z,99.85
2019-05-22T07:18:36.577Z,99.67
2019-05-22T07:21:06.612Z,99.92
2019-05-22T07:23:36.705Z,99.87
2019-05-22T07:26:06.061Z,100.00
2019-05-22T07:28:36.848Z,100.00
2019-05-22T07:31:06.062Z,100.00
2019-05-22T07:33:35.277Z,100.00
2019-05-22T07:36:09.973Z,100.00
2019-05-22T07:38:39.112Z,100.00
2019-05-22T07:41:08.439Z,99.45
2019-05-22T07:43:41.248Z,99.72
2019-05-22T07:46:08.059Z,99.65
2019-05-22T07:48:37.373Z,99.63
2019-05-22T07:51:08.303Z,99.51
2019-05-22T07:53:37.246Z,100.00
2019-05-22T07:56:10.270Z,99.74
2019-05-22T07:58:39.119Z,99.56
2019-05-22T08:01:08.358Z,99.39
2019-05-22T08:03:37.381Z,99.58
2019-05-22T08:06:08.323Z,99.75
2019-05-22T08:08:38.405Z,99.37
2019-05-22T08:11:07.703Z,99.12
2019-05-22T08:13:37.807Z,99.22
2019-05-22T08:16:07.534Z,99.51
2019-05-22T08:18:41.205Z,99.31
2019-05-22T08:21:11.146Z,98.99
2019-05-22T08:23:39.925Z,99.43
2019-05-22T08:26:10.926Z,99.53
2019-05-22T08:28:41.115Z,98.20
2019-05-22T08:31:11.194Z,97.50
2019-05-22T08:33:39.912Z,97.57
2019-05-22T08:36:09.879Z,97.13
2019-05-22T08:38:39.827Z,96.51
2019-05-22T08:41:09.307Z,95.88
2019-05-22T08:44:03.442Z,96.03
2019-05-22T08:46:11.358Z,95.78
2019-05-22T08:48:47.503Z,95.21
2019-05-22T08:51:12.455Z,95.38
2019-05-22T08:53:47.461Z,95.21
2019-05-22T08:56:13.465Z,94.50
2019-05-22T08:58:44.300Z,95.38
2019-05-22T09:01:14.221Z,95.77
2019-05-22T09:03:42.868Z,95.39
2019-05-22T09:06:11.864Z,95.49
2019-05-22T09:08:40.876Z,95.37
2019-05-22T09:11:10.012Z,95.23
2019-05-22T09:13:39.108Z,95.32
2019-05-22T09:16:08.538Z,94.84
2019-05-22T09:18:37.558Z,95.14
2019-05-22T09:21:09.640Z,95.48
2019-05-22T09:23:39.098Z,96.11
2019-05-22T09:26:08.218Z,96.19
2019-05-22T09:28:37.982Z,96.52
2019-05-22T09:31:06.636Z,96.43
2019-05-22T09:33:37.668Z,96.30
2019-05-22T09:36:06.880Z,96.43
2019-05-22T09:38:38.880Z,97.11
2019-05-22T09:41:07.791Z,96.93
2019-05-22T09:43:36.707Z,97.22
2019-05-22T09:46:08.429Z,96.18
2019-05-22T09:48:37.526Z,96.45
2019-05-22T09:51:09.115Z,96.51
2019-05-22T09:53:38.586Z,96.04
2019-05-22T09:56:07.359Z,95.88
2019-05-22T09:58:37.931Z,96.18
2019-05-22T10:01:11.516Z,95.39
2019-05-22T10:03:38.215Z,95.00
2019-05-22T10:06:07.726Z,94.34
2019-05-22T10:08:36.759Z,95.29
2019-05-22T10:11:08.952Z,93.98
2019-05-22T10:13:37.932Z,94.44
2019-05-22T10:16:06.905Z,93.66
2019-05-22T10:18:38.702Z,94.59
2019-05-22T10:21:07.431Z,93.61
2019-05-22T10:23:37.957Z,93.64
2019-05-22T10:26:07.176Z,93.23
2019-05-22T10:28:36.997Z,92.69
2019-05-22T10:31:26.253Z,93.11
2019-05-22T10:33:55.070Z,92.93
2019-05-22T10:36:24.491Z,93.74
2019-05-22T10:38:53.720Z,93.50
2019-05-22T10:41:22.742Z,93.40
2019-05-22T10:43:51.985Z,94.05
2019-05-22T10:46:20.891Z,94.20
2019-05-22T10:48:50.117Z,94.45
2019-05-22T10:51:19.038Z,94.50
2019-05-22T10:53:48.775Z,94.21
2019-05-22T10:56:18.411Z,94.60
2019-05-22T10:58:47.263Z,93.89
2019-05-22T11:01:15.932Z,93.79
2019-05-22T11:03:45.155Z,93.79
2019-05-22T11:06:13.979Z,94.89
2019-05-22T11:08:42.896Z,94.47
2019-05-22T11:11:11.721Z,94.81
2019-05-22T11:13:58.085Z,94.07
2019-05-22T11:16:12.755Z,93.83
2019-05-22T11:18:42.478Z,93.99
2019-05-22T11:21:12.576Z,94.57
2019-05-22T11:23:51.051Z,94.36
2019-05-22T11:26:12.502Z,94.01
2019-05-22T11:28:42.493Z,94.10
2019-05-22T11:31:11.914Z,94.90
2019-05-22T11:33:40.946Z,95.05
2019-05-22T11:36:10.868Z,95.13
2019-05-22T11:38:39.934Z,94.94
2019-05-22T11:41:08.739Z,95.95
2019-05-22T11:43:37.455Z,96.02
2019-05-22T11:46:09.549Z,96.05
2019-05-22T11:48:38.586Z,94.28
2019-05-22T11:51:07.917Z,94.64
2019-05-22T11:53:36.683Z,94.59
2019-05-22T11:56:08.429Z,94.57
2019-05-22T11:58:37.370Z,94.78
2019-05-22T12:01:08.381Z,94.57
2019-05-22T12:03:37.291Z,94.68
2019-05-22T12:06:07.592Z,94.58
2019-05-22T12:08:39.269Z,94.94
2019-05-22T12:11:09.508Z,95.41
2019-05-22T12:13:38.714Z,94.85
2019-05-22T12:16:07.873Z,94.74
2019-05-22T12:18:37.396Z,95.15
2019-05-22T12:21:09.340Z,94.42
2019-05-22T12:23:38.412Z,94.03
2019-05-22T12:26:08.266Z,94.09
2019-05-22T12:28:37.215Z,94.43
2019-05-22T12:31:08.271Z,94.53
2019-05-22T12:33:37.426Z,94.77
2019-05-22T12:36:12.228Z,94.98
2019-05-22T12:38:41.989Z,94.97
2019-05-22T12:41:11.616Z,95.28
2019-05-22T12:43:44.050Z,95.12
2019-05-22T12:46:12.711Z,94.67
2019-05-22T12:48:42.814Z,95.10
2019-05-22T12:51:12.355Z,95.06
2019-05-22T12:53:41.203Z,94.77
2019-05-22T12:56:09.961Z,94.49
2019-05-22T12:58:40.195Z,94.56
2019-05-22T13:01:08.977Z,94.64
2019-05-22T13:03:38.899Z,94.76
2019-05-22T13:06:09.369Z,94.73
2019-05-22T13:08:38.988Z,93.38
2019-05-22T13:11:08.130Z,93.61
2019-05-22T13:13:37.062Z,93.88
2019-05-22T13:16:06.274Z,92.88
2019-05-22T13:18:36.051Z,92.87
2019-05-22T13:21:06.363Z,92.97
2019-05-22T13:23:38.834Z,93.07
2019-05-22T13:26:08.774Z,92.56
2019-05-22T13:28:39.793Z,92.92
2019-05-22T13:31:09.933Z,93.58
2019-05-22T13:33:40.048Z,93.68
2019-05-22T13:36:11.010Z,93.99
2019-05-22T13:38:40.656Z,93.87
2019-05-22T13:41:10.770Z,93.84
2019-05-22T13:43:39.803Z,94.22
2019-05-22T13:46:09.350Z,95.20
2019-05-22T13:48:38.635Z,95.52
2019-05-22T13:51:29.055Z,95.09
2019-05-22T13:53:59.406Z,95.32
2019-05-22T13:56:28.547Z,95.42
2019-05-22T13:58:57.271Z,95.12
2019-05-22T14:01:26.297Z,95.37
2019-05-22T14:03:54.936Z,95.13
2019-05-22T14:06:24.149Z,94.50
2019-05-22T14:08:52.782Z,95.04
2019-05-22T14:11:21.565Z,95.96
2019-05-22T14:13:51.485Z,95.90
2019-05-22T14:16:20.894Z,95.75
2019-05-22T14:18:49.746Z,95.54
2019-05-22T14:21:18.866Z,95.58
2019-05-22T14:23:47.691Z,95.79
2019-05-22T14:26:16.508Z,95.63
2019-05-22T14:28:45.518Z,95.60
2019-05-22T14:31:14.578Z,95.47
2019-05-22T14:33:43.744Z,95.10
2019-05-22T14:36:12.457Z,94.38
2019-05-22T14:38:41.698Z,95.17
2019-05-22T14:41:11.148Z,94.46
2019-05-22T14:43:40.359Z,94.44
2019-05-22T14:46:09.153Z,93.85
2019-05-22T14:48:40.740Z,93.77
2019-05-22T14:51:10.752Z,93.94
2019-05-22T14:53:40.287Z,94.01
2019-05-22T14:56:11.261Z,93.76
2019-05-22T14:58:40.970Z,93.43
2019-05-22T15:01:10.529Z,93.40
2019-05-22T15:03:39.327Z,93.40
2019-05-22T15:06:08.454Z,93.57
2019-05-22T15:08:37.386Z,93.14
2019-05-22T15:11:07.627Z,93.33
2019-05-22T15:13:39.217Z,93.61
2019-05-22T15:16:07.932Z,93.09
2019-05-22T15:18:36.749Z,93.66
2019-05-22T15:21:09.422Z,93.67
2019-05-22T15:23:38.467Z,93.63
2019-05-22T15:26:08.398Z,92.96
2019-05-22T15:28:37.137Z,92.52
2019-05-22T15:31:07.716Z,92.46
2019-05-22T15:33:36.812Z,92.42
2019-05-22T15:36:08.148Z,92.69
2019-05-22T15:38:39.749Z,92.14
2019-05-22T15:41:09.579Z,92.13
2019-05-22T15:43:40.445Z,93.14
2019-05-22T15:46:10.337Z,93.40
2019-05-22T15:48:41.905Z,92.63
2019-05-22T15:51:10.866Z,92.75
2019-05-22T15:53:40.439Z,92.61
2019-05-22T15:56:10.901Z,92.59
2019-05-22T15:58:42.983Z,91.88
2019-05-22T16:01:15.452Z,91.56
2019-05-22T16:03:46.509Z,91.70
2019-05-22T16:06:16.466Z,91.42
2019-05-22T16:08:45.697Z,91.67
2019-05-22T16:11:16.924Z,91.79
2019-05-22T16:13:48.247Z,91.65
2019-05-22T16:16:20.319Z,91.64
2019-05-22T16:18:52.586Z,91.38
2019-05-22T16:21:21.928Z,91.79
2019-05-22T16:23:50.745Z,92.60
2019-05-22T16:26:20.069Z,92.18
2019-05-22T16:28:49.115Z,91.48
2019-05-22T16:31:21.295Z,91.14
2019-05-22T16:33:53.053Z,91.25
2019-05-22T16:36:24.185Z,91.35
2019-05-22T16:38:55.093Z,91.04
2019-05-22T16:41:26.680Z,90.88
2019-05-22T16:43:56.276Z,90.43
2019-05-22T16:46:26.438Z,89.78
2019-05-22T16:48:56.330Z,90.22
2019-05-22T16:51:27.716Z,90.65
2019-05-22T16:56:59.606Z,90.09
2019-05-22T16:59:30.203Z,89.69
2019-05-22T17:02:00.955Z,89.82
2019-05-22T17:04:30.663Z,90.17
2019-05-22T17:07:01.495Z,90.58
2019-05-22T17:09:31.132Z,90.52
2019-05-22T17:12:04.622Z,90.13
2019-05-22T17:14:34.441Z,90.14
2019-05-22T17:17:04.150Z,90.83
2019-05-22T17:19:35.714Z,92.11
2019-05-22T17:22:06.622Z,92.09
2019-05-22T17:24:37.078Z,92.26
2019-05-22T17:27:08.311Z,93.40
2019-05-22T17:29:37.471Z,92.62
2019-05-22T17:32:08.241Z,92.36
2019-05-22T17:34:37.816Z,92.35
2019-05-22T17:37:09.795Z,91.77
2019-05-22T17:39:42.331Z,92.08
2019-05-22T17:42:14.083Z,91.17
2019-05-22T17:44:46.477Z,91.34
2019-05-22T17:47:16.510Z,90.55
2019-05-22T17:49:46.200Z,90.78
2019-05-22T17:52:16.231Z,90.73
2019-05-22T17:54:45.676Z,90.53
2019-05-22T17:57:15.524Z,90.08
2019-05-22T17:59:44.948Z,90.22
2019-05-22T18:02:15.495Z,89.70
2019-05-22T18:04:47.090Z,89.36
2019-05-22T18:07:16.530Z,89.97
2019-05-22T18:09:46.317Z,90.01
2019-05-22T18:12:16.637Z,89.86
2019-05-22T18:14:47.057Z,89.98
2019-05-22T18:17:16.306Z,89.27
2019-05-22T18:19:45.066Z,89.57
2019-05-22T18:22:14.616Z,89.41
2019-05-22T18:24:43.441Z,89.73
2019-05-22T18:27:12.560Z,89.25
2019-05-22T18:29:41.277Z,89.24
2019-05-22T18:32:10.704Z,89.20
2019-05-22T18:34:39.840Z,89.76
2019-05-22T18:37:08.553Z,89.44
2019-05-22T18:39:38.152Z,88.72
2019-05-22T18:42:06.933Z,88.84
2019-05-22T18:44:35.736Z,88.31
2019-05-22T18:47:05.061Z,87.94
2019-05-22T18:49:36.515Z,88.70
2019-05-22T18:52:07.164Z,87.92
2019-05-22T18:54:36.678Z,86.89
2019-05-22T18:57:06.912Z,86.93
2019-05-22T18:59:38.911Z,85.96
2019-05-22T19:02:09.495Z,85.90
2019-05-22T19:04:39.200Z,86.19
2019-05-22T19:07:08.673Z,85.07
2019-05-22T19:09:37.994Z,86.01
2019-05-22T19:12:07.493Z,85.56
2019-05-22T19:14:39.533Z,85.48
2019-05-22T19:17:09.135Z,85.24
2019-05-22T19:19:38.536Z,84.46
2019-05-22T19:22:08.613Z,84.96
2019-05-22T19:24:39.219Z,83.88
2019-05-22T19:27:10.048Z,84.06
2019-05-22T19:29:39.845Z,84.22
2019-05-22T19:32:09.034Z,84.20
2019-05-22T19:34:38.536Z,84.00
2019-05-22T19:37:08.705Z,83.77
2019-05-22T19:39:38.327Z,83.94
2019-05-22T19:42:08.138Z,83.39
2019-05-22T19:44:36.901Z,83.07
2019-05-22T19:47:06.950Z,83.19
2019-05-22T19:49:37.307Z,82.92
2019-05-22T19:52:10.809Z,82.86
2019-05-22T19:54:41.648Z,82.73
2019-05-22T19:57:11.394Z,82.23
2019-05-22T19:59:40.576Z,82.49
2019-05-22T20:02:10.933Z,83.07
2019-05-22T20:04:39.969Z,82.05
2019-05-22T20:07:09.908Z,81.88
2019-05-22T20:09:39.947Z,81.84
2019-05-22T20:12:09.286Z,82.02
2019-05-22T20:14:38.242Z,82.01
2019-05-22T20:17:08.046Z,81.81
2019-05-22T20:19:36.976Z,81.86
2019-05-22T20:22:06.723Z,81.16
2019-05-22T20:24:39.141Z,81.61
2019-05-22T20:27:09.835Z,81.35
2019-05-22T20:29:39.462Z,81.33
2019-05-22T20:32:10.212Z,81.55
2019-05-22T20:34:39.217Z,81.81
2019-05-22T20:37:08.036Z,81.51
2019-05-22T20:39:37.302Z,80.90
2019-05-22T20:42:08.050Z,81.32
2019-05-22T20:44:38.083Z,80.83
2019-05-22T20:47:07.800Z,80.17
2019-05-22T20:49:39.071Z,79.78
2019-05-22T20:52:10.974Z,81.30
2019-05-22T20:54:41.269Z,80.58
2019-05-22T20:57:12.221Z,80.50
2019-05-22T20:59:42.821Z,80.40
2019-05-22T21:02:12.466Z,81.01
2019-05-22T21:04:43.768Z,80.84
2019-05-22T21:07:13.787Z,81.19
2019-05-22T21:09:43.259Z,80.73
2019-05-22T21:12:13.526Z,81.27
2019-05-22T21:14:42.645Z,81.52
2019-05-22T21:17:12.585Z,80.35
2019-05-22T21:19:41.726Z,80.97
2019-05-22T21:22:12.189Z,81.99
2019-05-22T21:24:41.107Z,81.08
2019-05-22T21:27:10.731Z,80.93
2019-05-22T21:29:39.596Z,80.67
2019-05-22T21:32:08.651Z,80.60
2019-05-22T21:34:39.249Z,81.38
2019-05-22T21:37:08.585Z,82.28
2019-05-22T21:39:38.020Z,80.92
2019-05-22T21:42:07.976Z,81.44
2019-05-22T21:44:37.296Z,80.92
2019-05-22T21:47:07.402Z,81.73
2019-05-22T21:49:38.930Z,80.89
2019-05-22T21:52:08.493Z,81.04
2019-05-22T21:54:38.126Z,82.76
2019-05-22T21:57:06.950Z,81.35
2019-05-22T21:59:35.680Z,81.13
2019-05-22T22:02:09.494Z,80.56
2019-05-22T22:04:38.242Z,81.12
2019-05-22T22:07:06.899Z,81.13
2019-05-22T22:09:38.468Z,81.58
2019-05-22T22:12:09.842Z,82.18
2019-05-22T22:14:40.190Z,81.41
2019-05-22T22:17:10.256Z,80.85
2019-05-22T22:19:39.120Z,80.70
2019-05-22T22:22:11.682Z,81.16
2019-05-22T22:24:40.387Z,80.86
2019-05-22T22:27:10.597Z,81.99
2019-05-22T22:29:39.247Z,82.22
2019-05-22T22:32:11.038Z,81.67
2019-05-22T22:34:43.428Z,82.22
2019-05-22T22:37:13.679Z,82.16
2019-05-22T22:39:44.080Z,84.81
2019-05-22T22:42:14.390Z,81.51
2019-05-22T22:44:44.409Z,81.35
2019-05-22T22:47:17.981Z,81.18
2019-05-22T22:49:48.120Z,82.27
2019-05-22T22:52:19.547Z,82.90
2019-05-22T22:54:48.671Z,81.96
2019-05-22T22:57:18.371Z,82.11
2019-05-22T22:59:47.254Z,82.27
2019-05-22T23:02:17.752Z,82.58
2019-05-22T23:04:48.669Z,82.23
2019-05-22T23:07:19.568Z,82.04
2019-05-22T23:09:49.229Z,81.88
2019-05-22T23:12:20.823Z,82.65
2019-05-22T23:14:52.464Z,83.17
2019-05-22T23:17:21.526Z,83.83
2019-05-22T23:19:49.935Z,83.07
2019-05-22T23:22:18.133Z,82.66
2019-05-22T23:24:49.774Z,82.31
2019-05-22T23:27:19.502Z,82.62
2019-05-22T23:29:48.409Z,82.14
2019-05-22T23:32:18.564Z,82.30
2019-05-22T23:34:48.308Z,82.59
2019-05-22T23:37:20.344Z,82.13
2019-05-22T23:39:50.872Z,82.00
2019-05-22T23:42:22.603Z,81.90
2019-05-22T23:44:54.147Z,82.04
2019-05-22T23:47:23.380Z,82.08
2019-05-22T23:49:52.700Z,82.47
2019-05-22T23:52:22.233Z,82.60
2019-05-22T23:54:52.177Z,82.26
2019-05-22T23:57:22.982Z,82.91
2019-05-22T23:59:53.604Z,82.52
